createdAt,value
2023-01-05T00:01:32.020Z,94008.31
2023-01-05T00:03:58.420Z,94027.22
2023-01-05T00:06:25.078Z,94048.56
2023-01-05T00:08:51.587Z,94015.16
2023-01-05T00:11:43.317Z,94024.41
2023-01-05T00:14:32.844Z,94038.50
2023-01-05T00:17:18.402Z,94064.66
2023-01-05T00:20:04.075Z,94094.00
2023-01-05T00:22:31.130Z,94152.75
2023-01-05T00:25:11.115Z,94203.84
2023-01-05T00:27:38.544Z,94222.34
2023-01-05T00:30:05.614Z,94266.59
2023-01-05T00:32:31.960Z,94330.59
2023-01-05T00:34:58.616Z,94412.31
2023-01-05T00:37:26.826Z,94444.06
2023-01-05T00:39:53.404Z,94452.34
2023-01-05T00:42:20.337Z,94496.03
2023-01-05T00:44:46.818Z,94522.19
2023-01-05T00:47:13.271Z,94539.47
2023-01-05T00:49:39.897Z,94495.78
2023-01-05T00:52:06.402Z,94458.91
2023-01-05T00:54:32.791Z,94430.34
2023-01-05T00:56:59.240Z,94334.97
2023-01-05T00:59:25.575Z,94276.63
2023-01-05T01:01:52.291Z,94259.94
2023-01-05T01:04:19.623Z,94222.34
2023-01-05T01:06:46.183Z,94209.81
2023-01-05T01:09:13.079Z,94149.88
2023-01-05T01:11:39.921Z,94116.88
2023-01-05T01:14:07.161Z,94051.31
2023-01-05T01:16:33.926Z,94021.16
2023-01-05T01:19:04.441Z,94095.59
2023-01-05T01:21:31.582Z,94175.63
2023-01-05T01:23:57.933Z,94252.09
2023-01-05T01:26:24.573Z,94327.34
2023-01-05T01:28:50.971Z,94425.53
2023-01-05T01:31:17.505Z,94502.00
2023-01-05T01:33:44.134Z,94594.53
2023-01-05T01:36:10.590Z,94679.47
2023-01-05T01:38:36.971Z,94740.63
2023-01-05T01:41:03.390Z,94787.25
2023-01-05T01:43:49.488Z,94849.84
2023-01-05T01:46:17.045Z,94902.81
2023-01-05T01:48:58.724Z,94962.59
2023-01-05T01:51:40.377Z,95021.44
2023-01-05T01:54:08.669Z,95079.16
2023-01-05T01:56:38.703Z,95095.69
2023-01-05T01:59:05.112Z,95115.16
2023-01-05T02:01:31.599Z,95156.50
2023-01-05T02:03:58.063Z,95183.00
2023-01-05T02:06:24.637Z,95204.41
2023-01-05T02:08:50.983Z,95224.69
2023-01-05T02:11:20.353Z,95218.97
2023-01-05T02:14:41.648Z,95236.13
2023-01-05T02:17:24.331Z,95276.84
2023-01-05T02:20:09.192Z,95336.03
2023-01-05T02:22:57.009Z,95338.34
2023-01-05T02:25:48.630Z,95352.38
2023-01-05T02:28:20.924Z,95409.63
2023-01-05T02:31:08.212Z,95440.38
2023-01-05T02:33:54.905Z,95453.94
2023-01-05T02:36:38.415Z,95502.34
2023-01-05T02:39:17.718Z,95508.72
2023-01-05T02:41:57.938Z,95487.78
2023-01-05T02:44:24.316Z,95411.94
2023-01-05T02:47:04.403Z,95340.00
2023-01-05T02:49:33.538Z,95290.97
2023-01-05T02:52:01.025Z,95239.97
2023-01-05T02:54:31.941Z,95195.81
2023-01-05T02:57:46.297Z,95061.16
2023-01-05T03:00:34.172Z,94887.75
2023-01-05T03:03:02.915Z,94652.56
2023-01-05T03:05:32.603Z,94417.88
2023-01-05T03:08:06.991Z,94183.44
2023-01-05T03:11:00.783Z,93937.06
2023-01-05T03:13:42.949Z,93692.94
2023-01-05T03:16:18.469Z,93508.34
2023-01-05T03:19:03.554Z,93345.63
2023-01-05T03:21:29.931Z,93218.69
2023-01-05T03:24:15.743Z,93182.50
2023-01-05T03:27:00.943Z,93187.72
2023-01-05T03:29:46.007Z,93198.16
2023-01-05T03:32:41.207Z,93212.81
2023-01-05T03:35:31.770Z,93208.19
2023-01-05T03:38:14.690Z,93198.16
2023-01-05T03:40:44.465Z,93194.16
2023-01-05T03:43:10.819Z,93182.50
2023-01-05T03:45:40.870Z,93206.59
2023-01-05T03:48:07.965Z,93209.41
2023-01-05T03:50:35.752Z,93225.84
2023-01-05T03:53:02.136Z,93277.66
2023-01-05T03:55:28.556Z,93327.09
2023-01-05T03:57:55.023Z,93381.72
2023-01-05T04:00:21.810Z,93459.63
2023-01-05T04:02:48.542Z,93541.63
2023-01-05T04:05:15.106Z,93616.97
2023-01-05T04:07:41.439Z,93673.81
2023-01-05T04:10:08.286Z,93728.09
2023-01-05T04:12:34.707Z,93793.19
2023-01-05T04:15:01.071Z,93868.75
2023-01-05T04:17:27.446Z,93955.97
2023-01-05T04:19:53.809Z,94073.34
2023-01-05T04:22:26.777Z,94182.88
2023-01-05T04:24:53.774Z,94267.72
2023-01-05T04:27:20.187Z,94347.91
2023-01-05T04:29:46.610Z,94366.03
2023-01-05T04:32:13.223Z,94349.94
2023-01-05T04:34:39.639Z,94287.78
2023-01-05T04:37:05.990Z,94227.25
2023-01-05T04:39:32.379Z,94165.75
2023-01-05T04:41:58.771Z,94178.22
2023-01-05T04:44:25.109Z,94207.59
2023-01-05T04:46:51.515Z,94251.00
2023-01-05T04:49:17.876Z,94314.53
2023-01-05T04:51:44.260Z,94349.28
2023-01-05T04:54:10.639Z,94450.84
2023-01-05T04:56:36.981Z,94515.63
2023-01-05T04:59:03.349Z,94594.22
2023-01-05T05:01:30.009Z,94601.78
2023-01-05T05:03:56.538Z,94618.44
2023-01-05T05:06:23.037Z,94631.25
2023-01-05T05:08:49.472Z,94602.06
2023-01-05T05:11:15.913Z,94597.84
2023-01-05T05:13:42.309Z,94616.31
2023-01-05T05:16:08.961Z,94637.03
2023-01-05T05:18:35.325Z,94685.50
2023-01-05T05:21:01.682Z,94758.66
2023-01-05T05:23:28.089Z,94810.53
2023-01-05T05:25:54.461Z,94838.66
2023-01-05T05:28:22.944Z,94817.31
2023-01-05T05:30:49.798Z,94783.69
2023-01-05T05:33:16.291Z,94780.63
2023-01-05T05:35:42.640Z,94808.03
2023-01-05T05:38:09.275Z,94827.94
2023-01-05T05:40:35.617Z,94838.22
2023-01-05T05:43:02.040Z,94819.09
2023-01-05T05:45:28.437Z,94765.41
2023-01-05T05:47:54.882Z,94721.16
2023-01-05T05:50:21.260Z,94693.88
2023-01-05T05:52:47.836Z,94695.03
2023-01-05T05:55:14.319Z,94725.22
2023-01-05T05:57:40.650Z,94783.53
2023-01-05T06:00:07.726Z,94835.78
2023-01-05T06:02:34.137Z,94829.94
2023-01-05T06:05:00.611Z,94825.66
2023-01-05T06:07:27.129Z,94775.41
2023-01-05T06:09:53.497Z,94656.94
2023-01-05T06:12:19.907Z,94577.94
2023-01-05T06:14:46.373Z,94515.25
2023-01-05T06:17:12.705Z,94492.75
2023-01-05T06:19:39.072Z,94506.06
2023-01-05T06:22:05.670Z,94533.97
2023-01-05T06:24:32.024Z,94590.28
2023-01-05T06:26:58.371Z,94671.69
2023-01-05T06:29:24.996Z,94750.91
2023-01-05T06:31:51.414Z,94828.94
2023-01-05T06:34:17.857Z,94890.66
2023-01-05T06:36:44.316Z,94980.13
2023-01-05T06:39:10.693Z,95027.63
2023-01-05T06:41:37.061Z,95098.00
2023-01-05T06:44:03.733Z,95136.56
2023-01-05T06:46:30.078Z,95165.94
2023-01-05T06:48:57.101Z,95205.34
2023-01-05T06:51:23.719Z,95207.75
2023-01-05T06:53:50.122Z,95236.50
2023-01-05T06:56:16.500Z,95263.63
2023-01-05T06:58:42.878Z,95276.06
2023-01-05T07:01:09.378Z,95274.44
2023-01-05T07:03:35.974Z,95271.16
2023-01-05T07:06:04.167Z,95232.94
2023-01-05T07:08:30.526Z,95117.00
2023-01-05T07:10:56.901Z,95005.53
2023-01-05T07:13:23.517Z,94881.66
2023-01-05T07:15:49.858Z,94756.63
2023-01-05T07:18:16.225Z,94659.75
2023-01-05T07:20:42.849Z,94548.06
2023-01-05T07:23:09.276Z,94457.22
2023-01-05T07:25:35.657Z,94371.25
2023-01-05T07:28:02.213Z,94313.44
2023-01-05T07:30:28.589Z,94253.38
2023-01-05T07:32:58.689Z,94246.75
2023-01-05T07:35:25.069Z,94269.28
2023-01-05T07:37:51.426Z,94298.59
2023-01-05T07:40:17.779Z,94317.53
2023-01-05T07:42:44.167Z,94336.78
2023-01-05T07:45:11.091Z,94376.59
2023-01-05T07:47:39.129Z,94407.94
2023-01-05T07:50:06.368Z,94453.31
2023-01-05T07:52:33.080Z,94480.06
2023-01-05T07:54:59.518Z,94523.63
2023-01-05T07:57:26.083Z,94540.13
2023-01-05T07:59:52.434Z,94579.91
2023-01-05T08:02:19.713Z,94609.66
2023-01-05T08:04:46.795Z,94661.53
2023-01-05T08:07:14.886Z,94676.88
2023-01-05T08:09:59.905Z,94664.78
2023-01-05T08:12:28.359Z,94632.16
2023-01-05T08:14:54.808Z,94540.47
2023-01-05T08:17:21.205Z,94463.69
2023-01-05T08:19:47.632Z,94347.97
2023-01-05T08:22:14.132Z,94250.75
2023-01-05T08:24:40.603Z,94185.47
2023-01-05T08:27:07.044Z,94154.38
2023-01-05T08:29:33.447Z,94144.31
2023-01-05T08:31:59.935Z,94153.56
2023-01-05T08:34:31.361Z,94138.47
2023-01-05T08:37:00.723Z,94110.34
2023-01-05T08:39:27.096Z,94061.13
2023-01-05T08:41:58.882Z,93976.34
2023-01-05T08:44:28.558Z,93887.59
2023-01-05T08:46:54.932Z,93778.75
2023-01-05T08:49:21.433Z,93679.56
2023-01-05T08:51:47.813Z,93622.53
2023-01-05T08:54:14.200Z,93583.97
2023-01-05T08:56:40.580Z,93562.69
2023-01-05T08:59:07.259Z,93557.66
2023-01-05T09:01:33.765Z,93532.13
2023-01-05T09:04:00.231Z,93515.28
2023-01-05T09:06:26.861Z,93492.41
2023-01-05T09:08:54.809Z,93477.72
2023-01-05T09:11:22.426Z,93458.28
2023-01-05T09:13:53.446Z,93459.50
2023-01-05T09:19:07.557Z,93448.44
2023-01-05T09:21:33.948Z,93465.47
2023-01-05T09:24:00.305Z,93485.16
2023-01-05T09:26:26.732Z,93504.44
2023-01-05T09:28:53.279Z,93536.94
2023-01-05T09:31:21.147Z,93559.06
2023-01-05T09:33:47.751Z,93575.94
2023-01-05T09:36:15.143Z,93600.00
2023-01-05T09:38:46.838Z,93660.69
2023-01-05T09:41:50.373Z,93766.28
2023-01-05T09:44:43.058Z,93881.16
2023-01-05T09:47:35.456Z,94009.75
2023-01-05T09:50:01.921Z,94105.72
2023-01-05T09:52:30.476Z,94135.88
2023-01-05T09:55:02.500Z,94146.31
2023-01-05T09:57:28.887Z,94146.75
2023-01-05T09:59:58.703Z,94168.03
2023-01-05T10:02:35.347Z,94172.88
2023-01-05T10:05:02.079Z,94127.84
2023-01-05T10:07:47.560Z,94090.91
2023-01-05T10:10:38.439Z,94062.19
2023-01-05T10:13:06.427Z,94242.09
2023-01-05T10:15:44.990Z,94543.06
2023-01-05T10:18:15.497Z,94705.53
2023-01-05T10:21:23.516Z,94761.47
2023-01-05T10:23:49.868Z,94701.25
2023-01-05T10:26:25.003Z,94635.50
2023-01-05T10:28:53.275Z,94610.75
2023-01-05T10:31:22.863Z,94552.81
2023-01-05T10:34:18.554Z,94488.09
2023-01-05T10:37:09.300Z,94474.69
2023-01-05T10:39:39.360Z,94468.19
2023-01-05T10:42:48.391Z,94451.59
2023-01-05T10:45:15.427Z,94489.72
2023-01-05T10:47:41.944Z,94509.41
2023-01-05T10:50:36.528Z,94543.56
2023-01-05T10:53:11.837Z,94569.56
2023-01-05T10:55:56.554Z,94572.19
2023-01-05T10:58:38.617Z,94564.66
2023-01-05T11:01:18.262Z,94553.25
2023-01-05T11:04:24.321Z,94530.06
2023-01-05T11:06:34.089Z,94498.47
2023-01-05T11:09:16.282Z,94449.88
2023-01-05T11:12:22.861Z,94402.66
2023-01-05T11:14:58.366Z,94389.19
2023-01-05T11:17:27.605Z,94355.31
2023-01-05T11:19:54.907Z,94342.56
2023-01-05T11:22:30.630Z,94324.25
2023-01-05T11:25:21.472Z,94306.44
2023-01-05T11:28:07.402Z,94284.72
2023-01-05T11:30:33.802Z,94243.09
2023-01-05T11:33:01.658Z,94214.47
2023-01-05T11:35:32.457Z,94192.53
2023-01-05T11:38:00.479Z,94187.75
2023-01-05T11:40:29.301Z,94190.19
2023-01-05T11:42:55.689Z,94218.13
2023-01-05T11:45:23.226Z,94268.91
2023-01-05T11:47:53.270Z,94293.75
2023-01-05T11:50:27.504Z,94405.53
2023-01-05T11:52:55.086Z,94564.63
2023-01-05T11:55:25.144Z,94724.34
2023-01-05T11:57:59.417Z,94833.38
2023-01-05T12:00:26.824Z,94940.31
2023-01-05T12:03:27.454Z,95050.69
2023-01-05T12:05:56.023Z,95221.75
2023-01-05T12:08:36.483Z,95322.03
2023-01-05T12:11:11.335Z,95393.81
2023-01-05T12:13:40.860Z,95495.22
2023-01-05T12:16:20.925Z,95620.47
2023-01-05T12:18:57.771Z,95794.06
2023-01-05T12:21:25.037Z,95849.50
2023-01-05T12:24:10.592Z,95882.78
2023-01-05T12:26:50.211Z,95896.78
2023-01-05T12:36:07.141Z,96073.00
2023-01-05T12:38:54.924Z,96075.06
2023-01-05T12:41:24.291Z,96108.41
2023-01-05T12:44:12.332Z,96103.63
2023-01-05T12:46:59.068Z,96057.47
2023-01-05T12:49:28.699Z,96026.72
2023-01-05T12:52:17.705Z,95960.75
2023-01-05T12:54:46.287Z,95946.50
2023-01-05T12:57:16.206Z,95890.03
2023-01-05T12:59:48.478Z,95845.06
2023-01-05T13:02:14.982Z,95794.41
2023-01-05T13:04:47.519Z,95840.34
2023-01-05T13:07:38.942Z,95869.50
2023-01-05T13:10:26.190Z,95848.88
2023-01-05T13:12:57.475Z,95831.41
2023-01-05T13:15:29.820Z,95800.16
2023-01-05T13:17:58.686Z,95764.88
2023-01-05T13:20:34.430Z,95788.97
2023-01-05T13:23:04.422Z,95772.56
2023-01-05T13:25:35.665Z,95811.50
2023-01-05T13:28:02.239Z,95822.06
2023-01-05T13:30:31.123Z,95825.81
2023-01-05T13:33:26.284Z,95820.59
2023-01-05T13:36:01.622Z,95820.91
2023-01-05T13:38:37.280Z,95872.88
2023-01-05T13:41:45.515Z,95844.28
2023-01-05T13:44:18.069Z,95870.38
2023-01-05T13:46:47.497Z,95941.81
2023-01-05T13:49:55.033Z,96014.91
2023-01-05T13:52:51.777Z,96088.25
2023-01-05T13:55:25.689Z,96161.06
2023-01-05T13:57:54.758Z,96209.41
2023-01-05T14:00:26.880Z,96256.91
2023-01-05T14:03:28.549Z,96293.75
2023-01-05T14:05:59.377Z,96329.19
2023-01-05T14:08:27.854Z,96384.81
2023-01-05T14:11:13.011Z,96425.63
2023-01-05T14:13:40.853Z,96493.50
2023-01-05T14:16:35.671Z,96465.72
2023-01-05T14:19:26.585Z,96543.22
2023-01-05T14:21:59.979Z,96601.72
2023-01-05T14:27:16.034Z,96742.66
2023-01-05T14:29:46.480Z,96750.50
2023-01-05T14:32:22.842Z,96746.19
2023-01-05T14:34:54.127Z,96688.78
2023-01-05T14:37:46.735Z,96618.47
2023-01-05T14:40:21.076Z,96596.75
2023-01-05T14:42:48.084Z,96571.47
2023-01-05T14:45:31.575Z,96503.75
2023-01-05T14:47:59.716Z,96421.19
2023-01-05T14:50:31.333Z,96374.22
2023-01-05T14:53:05.721Z,96329.16
2023-01-05T14:55:38.791Z,96288.38
2023-01-05T14:58:11.823Z,96166.00
2023-01-05T15:00:49.414Z,96109.81
2023-01-05T15:03:29.887Z,96038.72
2023-01-05T15:06:10.610Z,95957.31
2023-01-05T15:09:04.486Z,95914.75
2023-01-05T15:11:56.525Z,95906.25
2023-01-05T15:15:01.577Z,95875.22
2023-01-05T15:17:48.082Z,95873.59
2023-01-05T15:20:20.677Z,95901.97
2023-01-05T15:23:11.291Z,95870.00
2023-01-05T15:28:54.861Z,95847.19
2023-01-05T15:31:41.550Z,95817.56
2023-01-05T15:34:33.926Z,95789.53
2023-01-05T15:37:13.071Z,95744.22
2023-01-05T15:39:50.705Z,95676.38
2023-01-05T15:42:26.065Z,95610.50
2023-01-05T15:44:52.659Z,95565.50
2023-01-05T15:47:19.399Z,95498.03
2023-01-05T15:49:46.098Z,95434.78
2023-01-05T15:52:40.028Z,95352.94
2023-01-05T15:55:16.766Z,95269.47
2023-01-05T15:57:43.180Z,95203.28
2023-01-05T16:00:17.764Z,95128.00
2023-01-05T16:02:44.832Z,95072.88
2023-01-05T16:05:22.212Z,95017.47
2023-01-05T16:07:58.308Z,94966.28
2023-01-05T16:10:30.649Z,94936.78
2023-01-05T16:13:11.612Z,94936.16
2023-01-05T16:15:40.009Z,94950.34
2023-01-05T16:18:07.894Z,94990.41
2023-01-05T16:20:34.717Z,95018.63
2023-01-05T16:23:17.953Z,95095.06
2023-01-05T16:25:56.671Z,95125.03
2023-01-05T16:28:23.632Z,95165.72
2023-01-05T16:30:50.520Z,95212.66
2023-01-05T16:33:22.877Z,95231.09
2023-01-05T16:36:13.514Z,95256.00
2023-01-05T16:38:40.560Z,95250.78
2023-01-05T16:41:08.125Z,95278.16
2023-01-05T16:43:54.459Z,95296.69
2023-01-05T16:46:23.827Z,95308.59
2023-01-05T16:48:52.578Z,95339.38
2023-01-05T16:51:22.438Z,95364.47
2023-01-05T16:53:54.415Z,95397.03
2023-01-05T16:56:22.672Z,95404.56
2023-01-05T16:58:49.363Z,95412.38
2023-01-05T17:01:24.263Z,95399.63
2023-01-05T17:03:51.154Z,95388.56
2023-01-05T17:06:20.055Z,95387.59
2023-01-05T17:08:46.465Z,95367.72
2023-01-05T17:11:13.059Z,95359.88
2023-01-05T17:13:48.324Z,95363.47
2023-01-05T17:16:14.910Z,95368.69
2023-01-05T17:18:41.349Z,95360.88
2023-01-05T17:21:08.017Z,95358.09
2023-01-05T17:23:46.889Z,95318.84
2023-01-05T17:26:16.245Z,95297.19
2023-01-05T17:28:43.272Z,95268.34
2023-01-05T17:31:09.783Z,95217.03
2023-01-05T17:33:36.228Z,95175.47
2023-01-05T17:36:03.642Z,95148.75
2023-01-05T17:38:30.091Z,95107.38
2023-01-05T17:40:58.485Z,95056.91
2023-01-05T17:43:24.977Z,95034.41
2023-01-05T17:45:51.388Z,94988.47
2023-01-05T17:48:17.863Z,94957.34
2023-01-05T17:50:44.478Z,94928.53
2023-01-05T17:53:10.901Z,94885.53
2023-01-05T17:55:37.556Z,94872.81
2023-01-05T17:58:03.990Z,94851.00
2023-01-05T18:00:34.676Z,94843.19
2023-01-05T18:03:01.161Z,94827.56
2023-01-05T18:05:28.694Z,94799.69
2023-01-05T18:07:55.096Z,94757.81
2023-01-05T18:10:23.445Z,94686.84
2023-01-05T18:12:50.885Z,94606.69
2023-01-05T18:15:17.303Z,94526.78
2023-01-05T18:17:43.731Z,94419.75
2023-01-05T18:20:11.425Z,94331.53
2023-01-05T18:22:38.071Z,94218.94
2023-01-05T18:27:36.303Z,94036.53
2023-01-05T18:30:03.575Z,93965.59
2023-01-05T18:35:04.344Z,93799.03
2023-01-05T18:37:33.907Z,93697.44
2023-01-05T18:40:00.265Z,93541.13
2023-01-05T18:42:26.701Z,93356.81
2023-01-05T18:44:53.251Z,93099.50
2023-01-05T18:47:19.660Z,92972.47
2023-01-05T18:49:46.009Z,92878.69
2023-01-05T18:52:12.645Z,92780.47
2023-01-05T18:54:39.022Z,92683.88
2023-01-05T18:57:05.492Z,92600.53
2023-01-05T18:59:31.943Z,92529.66
2023-01-05T19:01:58.366Z,92454.66
2023-01-05T19:04:24.858Z,92395.31
2023-01-05T19:06:51.242Z,92333.84
2023-01-05T19:09:17.606Z,92249.94
2023-01-05T19:11:45.592Z,92205.09
2023-01-05T19:14:12.051Z,92155.38
2023-01-05T19:16:38.466Z,92099.91
2023-01-05T19:19:08.551Z,92064.47
2023-01-05T19:21:40.575Z,92016.00
2023-01-05T19:24:09.337Z,91971.50
2023-01-05T19:26:36.065Z,91920.69
2023-01-05T19:29:03.097Z,91869.69
2023-01-05T19:31:30.223Z,91851.94
2023-01-05T19:33:58.887Z,91796.00
2023-01-05T19:36:32.049Z,91755.13
2023-01-05T19:39:08.708Z,91725.91
2023-01-05T19:41:35.892Z,91683.25
2023-01-05T19:44:02.417Z,91649.38
2023-01-05T19:46:28.988Z,91614.50
2023-01-05T19:48:56.349Z,91574.41
2023-01-05T19:51:27.144Z,91540.03
2023-01-05T19:53:59.011Z,91493.66
2023-01-05T19:56:35.411Z,91477.00
2023-01-05T19:59:03.653Z,91456.94
2023-01-05T20:01:34.093Z,91307.72
2023-01-05T20:04:00.535Z,91294.72
2023-01-05T20:06:31.546Z,91275.44
2023-01-05T20:08:59.584Z,91253.06
2023-01-05T20:11:43.339Z,91222.06
2023-01-05T20:14:13.951Z,91184.06
2023-01-05T20:16:41.570Z,91167.63
2023-01-05T20:19:08.008Z,91159.31
2023-01-05T20:21:34.455Z,91145.25
2023-01-05T20:24:01.401Z,91117.16
2023-01-05T20:26:29.036Z,91087.97
2023-01-05T20:28:56.496Z,91067.69
2023-01-05T20:31:25.730Z,91041.66
2023-01-05T20:33:57.117Z,91006.25
2023-01-05T20:36:24.334Z,90977.59
2023-01-05T20:38:50.913Z,90968.75
2023-01-05T20:41:22.289Z,90953.13
2023-01-05T20:43:49.210Z,90937.50
2023-01-05T20:46:16.930Z,90932.81
2023-01-05T20:48:43.324Z,90933.31
2023-01-05T20:51:10.627Z,90923.72
2023-01-05T20:53:37.402Z,90916.69
2023-01-05T20:56:08.774Z,90918.25
2023-01-05T20:58:35.351Z,90901.56
2023-01-05T21:01:10.055Z,90906.78
2023-01-05T21:03:37.626Z,90906.78
2023-01-05T21:06:05.089Z,90906.78
2023-01-05T21:08:31.527Z,90887.50
2023-01-05T21:10:58.718Z,90891.16
2023-01-05T21:13:31.596Z,90908.88
2023-01-05T21:16:01.367Z,90913.06
2023-01-05T21:18:27.800Z,90917.47
2023-01-05T21:20:54.191Z,90929.97
2023-01-05T21:23:20.664Z,90926.06
2023-01-05T21:26:05.861Z,90925.53
2023-01-05T21:28:34.071Z,90929.19
2023-01-05T21:31:08.640Z,90943.25
2023-01-05T21:33:36.241Z,90952.88
2023-01-05T21:36:06.339Z,90951.06
2023-01-05T21:39:01.742Z,90955.22
2023-01-05T21:41:39.396Z,90959.38
2023-01-05T21:44:07.229Z,90965.63
2023-01-05T21:46:34.484Z,90979.69
2023-01-05T21:49:01.058Z,90975.00
2023-01-05T21:51:46.115Z,90991.16
2023-01-05T21:54:31.489Z,90996.88
2023-01-05T21:56:58.568Z,91007.81
2023-01-05T21:59:25.136Z,91025.50
2023-01-05T22:01:51.532Z,91018.75
2023-01-05T22:04:17.918Z,91025.25
2023-01-05T22:06:44.394Z,91027.31
2023-01-05T22:09:10.842Z,91026.03
2023-01-05T22:11:37.261Z,91026.53
2023-01-05T22:14:03.911Z,91051.53
2023-01-05T22:16:30.439Z,91066.09
2023-01-05T22:18:56.847Z,91081.72
2023-01-05T22:21:23.401Z,91084.31
2023-01-05T22:23:49.911Z,91109.78
2023-01-05T22:26:17.386Z,91110.09
2023-01-05T22:28:44.915Z,91090.56
2023-01-05T22:31:16.676Z,91061.41
2023-01-05T22:33:44.668Z,91052.59
2023-01-05T22:36:12.146Z,91023.41
2023-01-05T22:38:39.934Z,90998.41
2023-01-05T22:41:07.420Z,90988.81
2023-01-05T22:43:36.256Z,90974.47
2023-01-05T22:46:03.757Z,90971.88
2023-01-05T22:48:34.383Z,90968.75
2023-01-05T22:51:07.815Z,90975.53
2023-01-05T22:53:34.220Z,90982.81
2023-01-05T22:56:00.940Z,90965.13
2023-01-05T22:58:27.767Z,90955.22
2023-01-05T23:00:54.296Z,90952.59
2023-01-05T23:03:21.295Z,90941.13
2023-01-05T23:05:47.691Z,90917.72
2023-01-05T23:08:14.475Z,90887.50
2023-01-05T23:10:40.850Z,90856.25
2023-01-05T23:13:07.324Z,90829.69
2023-01-05T23:15:33.685Z,90813.03
2023-01-05T23:18:00.101Z,90806.78
2023-01-05T23:20:26.455Z,90787.53
2023-01-05T23:22:52.818Z,90784.91
2023-01-05T23:25:19.228Z,90780.22
2023-01-05T23:27:45.648Z,90766.13
2023-01-05T23:30:12.565Z,90756.25
2023-01-05T23:32:38.909Z,90760.63
2023-01-05T23:35:07.142Z,90764.53
2023-01-05T23:37:33.561Z,90776.00
2023-01-05T23:39:59.931Z,90793.16
2023-01-05T23:42:46.069Z,90809.31
2023-01-05T23:45:13.822Z,90838.72
2023-01-05T23:47:40.213Z,90887.44
2023-01-05T23:50:07.442Z,90936.69
2023-01-05T23:52:33.784Z,90982.25
2023-01-05T23:55:00.164Z,91041.88
2023-01-05T23:57:26.596Z,91114.31
2023-01-05T23:59:53.119Z,91185.44
